Time;durP1;ratioP1;P1;durP2;ratioP2;P2;SDS_P1;SDS_P2;PMS_P1;PMS_P2;Temp;Humidity;BMP_temperature;BMP_pressure;BME280_temperature;BME280_humidity;BME280_pressure;Samples;Min_cycle;Max_cycle;Signal;HPM_P1;HPM_P2
2021/04/13 00:01:16;;;;;;;;;;;;;;;10.41;56.02;101592.02;1840269;77;20233;-76
2021/04/13 00:03:58;;;;;;;;;;;;;;;10.35;56.39;101580.66;1853847;77;21369;-76
2021/04/13 00:06:29;;;;;;;;;;;;;;;10.33;56.26;101578.61;1854574;77;20272;-76
2021/04/13 00:09:21;;;;;;;;;;;;;;;10.31;56.43;101578.28;1863626;77;20234;-76
2021/04/13 00:11:52;;;;;;;;;;;;;;;10.28;56.32;101584.47;1857095;77;20222;-76
2021/04/13 00:14:23;;;;;;;;;;;;;;;10.27;56.46;101576.78;1845729;77;20214;-76
2021/04/13 00:16:52;;;;;;;;;;;;;;;10.23;56.86;101583.03;1854747;77;22174;-76
2021/04/13 00:19:22;;;;;;;;;;;;;;;10.18;57.21;101580.66;1822629;77;20229;-76
2021/04/13 00:21:51;;;;;;;;;;;;;;;10.16;57.47;101590.73;1847319;77;20142;-76
2021/04/13 00:24:21;;;;;;;;;;;;;;;10.11;57.97;101589.16;1857046;77;20681;-76
2021/04/13 00:26:52;;;;;;;;;;;;;;;10.08;58.23;101583.31;1846612;77;20292;-76
2021/04/13 00:29:22;;;;;;;;;;;;;;;10.04;58.78;101581.78;1855021;77;22253;-76
2021/04/13 00:31:53;;;;;;;;;;;;;;;10.02;59.14;101586.18;1853664;77;20499;-76
2021/04/13 00:34:25;;;;;;;;;;;;;;;9.95;59.59;101585.67;1845937;77;20213;-76
2021/04/13 00:36:55;;;;;;;;;;;;;;;9.90;60.52;101581.14;1847617;77;20225;-75
2021/04/13 00:39:25;;;;;;;;;;;;;;;9.86;60.94;101584.80;1856260;77;20226;-76
2021/04/13 00:42:00;;;;;;;;;;;;;;;9.86;61.51;101589.16;1846518;77;21349;-76
2021/04/13 00:44:32;;;;;;;;;;;;;;;9.82;61.43;101589.77;1855925;77;20559;-76
2021/04/13 00:47:05;;;;;;;;;;;;;;;9.80;61.41;101590.73;1857103;77;20281;-76
2021/04/13 00:49:36;;;;;;;;;;;;;;;9.78;61.73;101588.67;1857037;77;20166;-76
2021/04/13 00:52:10;;;;;;;;;;;;;;;9.72;62.50;101587.22;1852737;77;20233;-76
2021/04/13 00:54:43;;;;;;;;;;;;;;;9.66;63.30;101588.81;1852814;77;21363;-76
2021/04/13 00:57:24;;;;;;;;;;;;;;;9.63;64.00;101589.41;1835645;76;20594;-76
2021/04/13 00:59:53;;;;;;;;;;;;;;;9.58;64.78;101588.32;1845025;77;20221;-76
2021/04/13 01:02:28;;;;;;;;;;;;;;;9.56;65.92;101591.00;1855923;77;20680;-76
2021/04/13 01:05:18;;;;;;;;;;;;;;;9.55;66.47;101585.87;1855371;77;20217;-76
2021/04/13 01:07:52;;;;;;;;;;;;;;;9.56;67.39;101585.81;1857444;77;21465;-76
2021/04/13 01:10:27;;;;;;;;;;;;;;;9.58;67.98;101589.16;1856975;77;20173;-76
2021/04/13 01:13:09;;;;;;;;;;;;;;;9.57;68.05;101587.47;1856302;77;20296;-76
2021/04/13 01:15:41;;;;;;;;;;;;;;;9.53;68.19;101583.38;1848291;77;20237;-76
2021/04/13 01:18:10;;;;;;;;;;;;;;;9.49;68.63;101579.69;1860481;77;20536;-76
2021/04/13 01:20:56;;;;;;;;;;;;;;;9.45;69.04;101580.73;1850004;77;21251;-76
2021/04/13 01:23:31;;;;;;;;;;;;;;;9.42;69.68;101579.13;1833468;77;20146;-76
2021/04/13 01:25:58;;;;;;;;;;;;;;;9.39;70.59;101574.09;1855901;77;20272;-76
2021/04/13 01:28:31;;;;;;;;;;;;;;;9.38;70.90;101571.11;1854264;77;20216;-76
2021/04/13 01:32:05;;;;;;;;;;;;;;;9.38;70.97;101574.19;1855170;77;20216;-76
2021/04/13 01:33:54;;;;;;;;;;;;;;;9.38;70.87;101571.59;1818759;77;22229;-76
2021/04/13 01:36:29;;;;;;;;;;;;;;;9.38;70.82;101576.29;1850984;77;20245;-76
2021/04/13 01:39:10;;;;;;;;;;;;;;;9.39;70.75;101581.87;1855933;77;20150;-75
2021/04/13 01:41:57;;;;;;;;;;;;;;;9.38;70.79;101579.37;1860830;77;20580;-75
2021/04/13 01:44:18;;;;;;;;;;;;;;;9.39;70.81;101577.98;1848229;77;20709;-75
2021/04/13 01:46:45;;;;;;;;;;;;;;;9.39;70.95;101576.69;1826149;77;21137;-75
2021/04/13 01:49:13;;;;;;;;;;;;;;;9.41;71.03;101583.11;1844699;77;20216;-75
2021/04/13 01:51:43;;;;;;;;;;;;;;;9.42;70.97;101584.31;1860790;77;20139;-75
2021/04/13 01:54:14;;;;;;;;;;;;;;;9.41;70.94;101583.92;1860715;77;20274;-76
2021/04/13 01:56:56;;;;;;;;;;;;;;;9.39;71.08;101579.28;1860770;77;20154;-76
2021/04/13 01:59:35;;;;;;;;;;;;;;;9.37;71.18;101577.67;1861356;77;21096;-76
2021/04/13 02:02:06;;;;;;;;;;;;;;;9.33;71.42;101579.56;1860920;77;20197;-75
2021/04/13 02:04:47;;;;;;;;;;;;;;;9.28;71.64;101578.11;1860713;77;20217;-75
2021/04/13 02:07:46;;;;;;;;;;;;;;;9.23;71.84;101572.28;1860436;77;20269;-75
2021/04/13 02:10:18;;;;;;;;;;;;;;;9.16;72.20;101567.02;1860351;77;20181;-75
2021/04/13 02:12:42;;;;;;;;;;;;;;;9.11;72.68;101572.84;1860704;77;21347;-76
2021/04/13 02:15:17;;;;;;;;;;;;;;;9.05;72.80;101567.50;1860914;77;20810;-76
2021/04/13 02:18:06;;;;;;;;;;;;;;;8.99;72.93;101567.33;1858941;77;20210;-76
2021/04/13 02:20:37;;;;;;;;;;;;;;;8.93;73.21;101559.00;1854232;77;20154;-75
2021/04/13 02:23:05;;;;;;;;;;;;;;;8.87;73.53;101557.98;1859960;77;20135;-75
2021/04/13 02:25:35;;;;;;;;;;;;;;;8.82;73.66;101565.94;1861011;77;21252;-76
2021/04/13 02:28:04;;;;;;;;;;;;;;;8.77;73.58;101560.58;1857575;77;20569;-75
2021/04/13 02:30:44;;;;;;;;;;;;;;;8.73;73.56;101564.20;1853287;77;20154;-76
2021/04/13 02:33:21;;;;;;;;;;;;;;;8.67;73.50;101564.03;1860790;77;20135;-75
2021/04/13 02:35:49;;;;;;;;;;;;;;;8.62;73.52;101563.81;1858190;77;20198;-76
2021/04/13 02:38:18;;;;;;;;;;;;;;;8.60;73.54;101560.47;1860987;77;21199;-76
2021/04/13 02:41:15;;;;;;;;;;;;;;;8.56;73.58;101564.94;1858747;77;20106;-76
2021/04/13 02:43:31;;;;;;;;;;;;;;;8.54;73.62;101559.44;1857314;77;20175;-76
2021/04/13 02:46:04;;;;;;;;;;;;;;;8.52;73.54;101562.08;1856765;77;20107;-75
2021/04/13 02:48:40;;;;;;;;;;;;;;;8.46;73.58;101563.19;1860940;77;20261;-76
2021/04/13 02:51:04;;;;;;;;;;;;;;;8.37;73.70;101557.57;1857995;77;21200;-76
2021/04/13 02:53:36;;;;;;;;;;;;;;;8.30;73.97;101562.16;1852425;77;20166;-77
2021/04/13 02:56:05;;;;;;;;;;;;;;;8.25;74.19;101565.37;1856189;77;20146;-76
2021/04/13 02:58:45;;;;;;;;;;;;;;;8.20;74.28;101562.60;1860266;77;20310;-75
2021/04/13 03:01:13;;;;;;;;;;;;;;;8.15;74.50;101557.61;1866721;77;20201;-75
2021/04/13 03:03:43;;;;;;;;;;;;;;;8.11;74.70;101562.52;1863689;77;21192;-76
2021/04/13 03:06:11;;;;;;;;;;;;;;;8.06;74.93;101564.91;1861332;77;20146;-75
2021/04/13 03:08:40;;;;;;;;;;;;;;;8.00;75.16;101568.59;1861335;77;20154;-76
2021/04/13 03:11:19;;;;;;;;;;;;;;;7.93;75.49;101564.12;1860901;77;20228;-76
2021/04/13 03:13:48;;;;;;;;;;;;;;;7.87;75.89;101563.53;1860406;77;20142;-75
2021/04/13 03:16:19;;;;;;;;;;;;;;;7.83;76.51;101561.52;1851091;77;20170;-76
2021/04/13 03:18:50;;;;;;;;;;;;;;;7.82;76.84;101567.58;1857037;76;20138;-76
2021/04/13 03:21:20;;;;;;;;;;;;;;;7.81;77.32;101563.33;1856379;77;20289;-74
2021/04/13 03:23:48;;;;;;;;;;;;;;;7.80;77.66;101567.25;1852295;77;20611;-74
2021/04/13 03:26:31;;;;;;;;;;;;;;;7.76;77.86;101570.41;1853386;77;20245;-76
2021/04/13 03:29:05;;;;;;;;;;;;;;;7.72;78.05;101566.73;1862596;77;21142;-76
2021/04/13 03:31:32;;;;;;;;;;;;;;;7.69;78.31;101579.30;1851009;77;20293;-76
2021/04/13 03:34:02;;;;;;;;;;;;;;;7.68;78.51;101585.83;1861322;77;20771;-75
2021/04/13 03:36:31;;;;;;;;;;;;;;;7.65;78.60;101572.59;1859043;77;20114;-76
2021/04/13 03:39:03;;;;;;;;;;;;;;;7.67;78.76;101569.94;1853947;77;20213;-75
2021/04/13 03:41:31;;;;;;;;;;;;;;;7.68;78.91;101561.29;1857381;77;22305;-75
2021/04/13 03:43:59;;;;;;;;;;;;;;;7.67;78.83;101566.91;1855358;77;20134;-76
2021/04/13 03:46:30;;;;;;;;;;;;;;;7.67;78.91;101564.32;1859620;77;20202;-75
2021/04/13 03:48:58;;;;;;;;;;;;;;;7.67;78.56;101563.03;1857364;77;20201;-76
2021/04/13 03:51:28;;;;;;;;;;;;;;;7.64;78.17;101564.44;1857261;77;20268;-76
2021/04/13 03:53:56;;;;;;;;;;;;;;;7.59;78.25;101566.38;1847333;76;21350;-76
2021/04/13 03:56:25;;;;;;;;;;;;;;;7.57;78.43;101566.87;1861865;77;20134;-76
2021/04/13 03:58:56;;;;;;;;;;;;;;;7.56;78.54;101572.95;1861068;77;20209;-75
2021/04/13 04:01:26;;;;;;;;;;;;;;;7.53;78.47;101561.91;1860330;77;20126;-75
2021/04/13 04:03:56;;;;;;;;;;;;;;;7.47;78.67;101562.95;1860248;77;20178;-75
2021/04/13 04:06:56;;;;;;;;;;;;;;;7.45;78.95;101568.20;1857968;77;21195;-75
2021/04/13 04:09:21;;;;;;;;;;;;;;;7.44;79.02;101565.66;1858284;77;20197;-75
2021/04/13 04:11:51;;;;;;;;;;;;;;;7.43;79.15;101567.39;1860130;77;20483;-76
2021/04/13 04:14:23;;;;;;;;;;;;;;;7.44;79.29;101572.11;1848689;77;20472;-75
2021/04/13 04:16:51;;;;;;;;;;;;;;;7.45;79.35;101573.36;1857486;77;20194;-75
2021/04/13 04:19:23;;;;;;;;;;;;;;;7.44;79.53;101577.28;1861496;77;21161;-75
2021/04/13 04:22:02;;;;;;;;;;;;;;;7.44;79.66;101578.12;1860324;77;20162;-76
2021/04/13 04:24:33;;;;;;;;;;;;;;;7.47;79.99;101581.03;1860395;77;20142;-75
2021/04/13 04:27:07;;;;;;;;;;;;;;;7.49;80.20;101576.67;1850884;77;20221;-76
2021/04/13 04:29:37;;;;;;;;;;;;;;;7.54;80.48;101576.03;1861499;77;20161;-76
2021/04/13 04:32:18;;;;;;;;;;;;;;;7.62;80.80;101578.33;1860367;77;21259;-76
2021/04/13 04:34:49;;;;;;;;;;;;;;;7.67;80.97;101572.07;1857464;77;20523;-75
2021/04/13 04:37:32;;;;;;;;;;;;;;;7.72;81.36;101575.77;1862460;76;20154;-75
2021/04/13 04:40:14;;;;;;;;;;;;;;;7.75;81.61;101582.11;1855612;77;20233;-75
2021/04/13 04:42:48;;;;;;;;;;;;;;;7.80;81.72;101577.14;1853177;77;20206;-76
2021/04/13 04:45:22;;;;;;;;;;;;;;;7.86;81.80;101576.89;1853162;77;21188;-75
2021/04/13 04:47:50;;;;;;;;;;;;;;;7.90;81.75;101581.49;1854334;77;20182;-75
2021/04/13 04:50:21;;;;;;;;;;;;;;;7.94;81.71;101572.24;1859894;77;20194;-77
2021/04/13 04:52:50;;;;;;;;;;;;;;;8.02;81.63;101570.65;1859856;77;20238;-76
2021/04/13 04:55:18;;;;;;;;;;;;;;;8.10;81.40;101575.07;1854715;77;20129;-76
2021/04/13 04:57:45;;;;;;;;;;;;;;;8.20;81.16;101582.00;1851162;77;21191;-75
2021/04/13 05:00:13;;;;;;;;;;;;;;;8.24;80.95;101581.78;1860752;77;20185;-76
2021/04/13 05:02:42;;;;;;;;;;;;;;;8.30;80.78;101581.56;1860930;77;20138;-76
2021/04/13 05:05:11;;;;;;;;;;;;;;;8.36;80.55;101577.90;1867743;77;20202;-76
2021/04/13 05:07:38;;;;;;;;;;;;;;;8.40;80.23;101575.09;1856295;77;20229;-76
2021/04/13 05:10:07;;;;;;;;;;;;;;;8.46;79.84;101576.13;1853169;77;21150;-77
2021/04/13 05:12:35;;;;;;;;;;;;;;;8.49;79.46;101579.88;1857949;77;20114;-75
2021/04/13 05:15:04;;;;;;;;;;;;;;;8.53;79.13;101576.70;1856029;77;20138;-75
2021/04/13 05:17:31;;;;;;;;;;;;;;;8.58;78.89;101579.95;1851901;77;20126;-76
2021/04/13 05:20:00;;;;;;;;;;;;;;;8.63;78.64;101575.41;1862771;77;20194;-76
2021/04/13 05:22:29;;;;;;;;;;;;;;;8.69;78.35;101571.70;1857346;77;21348;-76
2021/04/13 05:24:56;;;;;;;;;;;;;;;8.75;78.11;101571.44;1859377;77;20205;-77
2021/04/13 05:27:24;;;;;;;;;;;;;;;8.83;77.92;101570.21;1856701;77;20265;-76
2021/04/13 05:29:52;;;;;;;;;;;;;;;8.91;77.58;101560.34;1853694;77;20186;-77
2021/04/13 05:32:19;;;;;;;;;;;;;;;8.98;77.25;101560.91;1854262;77;20297;-78
2021/04/13 05:34:47;;;;;;;;;;;;;;;9.05;76.91;101558.44;1847763;76;21588;-78
2021/04/13 05:37:14;;;;;;;;;;;;;;;9.13;76.50;101561.50;1848352;77;20567;-78
2021/04/13 05:39:42;;;;;;;;;;;;;;;9.22;76.08;101557.67;1860040;77;20241;-77
2021/04/13 05:42:19;;;;;;;;;;;;;;;9.29;75.62;101557.30;1848793;77;20492;-78
2021/04/13 05:44:47;;;;;;;;;;;;;;;9.37;75.08;101560.39;1859193;77;20221;-77
2021/04/13 05:47:17;;;;;;;;;;;;;;;9.44;74.54;101563.53;1857462;77;20503;-77
2021/04/13 05:49:44;;;;;;;;;;;;;;;9.51;73.94;101560.56;1855663;77;20505;-77
2021/04/13 05:52:13;;;;;;;;;;;;;;;9.63;72.93;101557.02;1848824;77;20268;-77
2021/04/13 05:54:41;;;;;;;;;;;;;;;9.69;71.91;101554.98;1858074;77;20304;-77
2021/04/13 05:57:11;;;;;;;;;;;;;;;9.78;71.34;101555.83;1850456;77;20146;-77
2021/04/13 05:59:39;;;;;;;;;;;;;;;9.85;71.01;101549.88;1855590;77;21191;-77
2021/04/13 06:02:06;;;;;;;;;;;;;;;9.90;70.82;101554.38;1836011;77;20233;-77
2021/04/13 06:04:35;;;;;;;;;;;;;;;9.94;70.56;101554.62;1828267;77;20289;-76
2021/04/13 06:07:03;;;;;;;;;;;;;;;9.97;70.12;101551.87;1831393;77;20222;-78
2021/04/13 06:09:32;;;;;;;;;;;;;;;10.02;69.82;101555.91;1827624;77;20366;-77
2021/04/13 06:12:00;;;;;;;;;;;;;;;10.10;69.18;101560.27;1829310;77;21667;-77
2021/04/13 06:14:29;;;;;;;;;;;;;;;10.18;68.40;101558.61;1832147;77;20218;-79
2021/04/13 06:16:59;;;;;;;;;;;;;;;10.29;66.88;101554.19;1832040;77;20297;-77
2021/04/13 06:19:30;;;;;;;;;;;;;;;10.42;65.58;101553.49;1830841;77;20281;-77
2021/04/13 06:21:57;;;;;;;;;;;;;;;10.51;64.66;101561.26;1826337;77;20292;-78
2021/04/13 06:24:25;;;;;;;;;;;;;;;10.59;63.80;101564.31;1829260;77;22274;-77
2021/04/13 06:26:53;;;;;;;;;;;;;;;10.71;63.02;101568.02;1828491;77;20218;-76
2021/04/13 06:29:23;;;;;;;;;;;;;;;10.81;62.32;101567.47;1828807;77;20312;-76
2021/04/13 06:31:58;;;;;;;;;;;;;;;10.85;61.56;101559.06;1825312;77;20238;-77
2021/04/13 06:34:30;;;;;;;;;;;;;;;10.97;60.27;101568.80;1826608;78;20288;-77
2021/04/13 06:37:25;;;;;;;;;;;;;;;11.05;60.34;101564.02;1826411;78;21450;-75
2021/04/13 06:40:27;;;;;;;;;;;;;;;;;;;;;
2021/04/13 06:43:35;;;;;;;;;;;;;;;11.28;58.63;101567.52;1663013;84;20261;-77
2021/04/13 06:50:25;;;;;;;;;;;;;;;11.64;57.29;101563.35;1971068;73;20174;-79
2021/04/13 06:53:18;;;;;;;;;;;;;;;11.71;56.85;101571.68;1939397;74;20226;-79
2021/04/13 06:56:06;;;;;;;;;;;;;;;11.79;56.18;101572.91;1917365;73;21406;-79
2021/04/13 06:58:55;;;;;;;;;;;;;;;11.91;55.31;101574.81;1889939;75;20272;-78
2021/04/13 07:01:49;;;;;;;;;;;;;;;12.10;54.35;101578.49;1887600;75;20113;-77
2021/04/13 07:04:27;;;;;;;;;;;;;;;12.27;54.18;101574.92;1908055;73;20178;-77
2021/04/13 07:07:10;;;;;;;;;;;;;;;12.40;53.97;101578.02;1922845;73;20475;-79
2021/04/13 07:09:47;;;;;;;;;;;;;;;12.50;53.43;101573.95;1935332;73;20506;-77
2021/04/13 07:12:24;;;;;;;;;;;;;;;12.66;53.42;101572.56;1913176;74;20811;-79
2021/04/13 07:15:21;;;;;;;;;;;;;;;12.77;52.57;101574.50;1891743;75;20115;-78
2021/04/13 07:18:13;;;;;;;;;;;;;;;12.87;52.57;101571.25;1904662;75;20214;-79
2021/04/13 07:21:00;;;;;;;;;;;;;;;12.99;52.17;101567.89;1905521;74;20221;-78
2021/04/13 07:23:44;;;;;;;;;;;;;;;13.12;51.46;101569.30;1926748;73;21169;-79
2021/04/13 07:26:31;;;;;;;;;;;;;;;13.26;51.31;101566.69;1926055;73;20181;-82
2021/04/13 07:29:11;;;;;;;;;;;;;;;13.39;50.83;101566.75;1911030;73;20221;-78
2021/04/13 07:32:02;;;;;;;;;;;;;;;13.54;50.70;101564.46;1904175;73;20274;-78
2021/04/13 07:34:32;;;;;;;;;;;;;;;13.71;51.06;101555.09;1895967;75;20140;-77
2021/04/13 07:37:06;;;;;;;;;;;;;;;13.85;52.03;101557.62;1877476;74;21303;-78
2021/04/13 07:39:34;;;;;;;;;;;;;;;13.95;51.38;101556.55;1883993;75;20564;-77
2021/04/13 07:42:09;;;;;;;;;;;;;;;14.06;51.81;101555.39;1854377;76;20185;-79
2021/04/13 07:45:05;;;;;;;;;;;;;;;14.18;50.38;101550.66;1872120;76;20149;-78
2021/04/13 07:48:06;;;;;;;;;;;;;;;14.38;50.22;101551.50;1811710;78;20282;-76
2021/04/13 07:50:46;;;;;;;;;;;;;;;14.50;49.06;101549.36;1824176;77;21205;-79
2021/04/13 07:53:37;;;;;;;;;;;;;;;14.63;47.85;101551.50;1823793;78;20502;-83
2021/04/13 07:56:30;;;;;;;;;;;;;;;14.79;46.79;101549.97;1833421;77;20274;-79
2021/04/13 07:59:01;;;;;;;;;;;;;;;14.92;47.79;101553.86;1832536;77;20235;-79
2021/04/13 08:01:29;;;;;;;;;;;;;;;15.06;47.43;101547.21;1832646;77;20251;-79
2021/04/13 08:03:57;;;;;;;;;;;;;;;15.14;48.59;101547.48;1833134;77;21197;-82
2021/04/13 08:06:34;;;;;;;;;;;;;;;15.18;49.88;101544.56;1834023;77;20501;-77
2021/04/13 08:09:33;;;;;;;;;;;;;;;15.21;50.22;101539.58;1828634;77;20706;-78
2021/04/13 08:12:19;;;;;;;;;;;;;;;15.23;50.71;101538.52;1827667;77;20654;-81
2021/04/13 08:14:50;;;;;;;;;;;;;;;15.32;51.13;101547.47;1832713;77;20509;-77
2021/04/13 08:17:24;;;;;;;;;;;;;;;15.46;51.44;101541.26;1820402;78;21933;-81
2021/04/13 08:20:08;;;;;;;;;;;;;;;15.60;52.18;101541.14;1824485;78;20180;-77
2021/04/13 08:22:53;;;;;;;;;;;;;;;15.76;52.31;101537.76;1830165;78;20129;-78
2021/04/13 08:25:48;;;;;;;;;;;;;;;15.91;51.59;101535.30;1829963;77;20213;-82
2021/04/13 08:28:38;;;;;;;;;;;;;;;16.06;49.13;101528.08;1813250;77;20240;-81
2021/04/13 08:34:42;;;;;;;;;;;;;;;16.31;47.26;101528.73;1823677;77;20266;-77
2021/04/13 08:37:32;;;;;;;;;;;;;;;16.43;47.71;101526.47;1828908;78;20145;-81
2021/04/13 08:40:10;;;;;;;;;;;;;;;16.52;46.07;101532.81;1806367;78;20337;-79
2021/04/13 08:42:45;;;;;;;;;;;;;;;16.62;44.50;101532.97;1833530;77;20494;-79
2021/04/13 08:45:37;;;;;;;;;;;;;;;16.65;44.63;101530.11;1833048;77;21189;-74
2021/04/13 08:48:27;;;;;;;;;;;;;;;16.68;44.18;101520.70;1831887;77;20195;-76
2021/04/13 08:51:13;;;;;;;;;;;;;;;16.76;44.68;101527.00;1826579;78;20212;-78
2021/04/13 08:53:48;;;;;;;;;;;;;;;16.88;43.71;101525.20;1826937;78;20223;-79
2021/04/13 08:56:25;;;;;;;;;;;;;;;17.01;43.19;101532.96;1832489;78;20292;-83
2021/04/13 08:58:55;;;;;;;;;;;;;;;17.10;43.16;101529.60;1833287;77;20506;-79
2021/04/13 09:01:41;;;;;;;;;;;;;;;17.21;43.53;101526.47;1833568;77;20254;-79
2021/04/13 09:04:18;;;;;;;;;;;;;;;17.32;43.01;101525.14;1832886;78;20207;-81
2021/04/13 09:06:59;;;;;;;;;;;;;;;17.44;41.68;101523.31;1822091;77;20232;-80
2021/04/13 09:10:03;;;;;;;;;;;;;;;17.55;41.19;101532.95;1833013;78;20219;-79
2021/04/13 09:12:34;;;;;;;;;;;;;;;17.63;41.89;101524.83;1822251;77;21350;-81
2021/04/13 09:15:15;;;;;;;;;;;;;;;17.80;42.45;101528.22;1825532;77;20209;-80
2021/04/13 09:18:02;;;;;;;;;;;;;;;17.97;40.69;101523.70;1824174;78;20187;-78
2021/04/13 09:20:38;;;;;;;;;;;;;;;18.08;40.64;101524.13;1828252;77;20250;-78
2021/04/13 09:23:19;;;;;;;;;;;;;;;18.20;41.46;101527.50;1831820;77;20216;-77
2021/04/13 09:26:05;;;;;;;;;;;;;;;18.31;41.56;101526.13;1774436;76;21413;-78
2021/04/13 09:28:49;;;;;;;;;;;;;;;18.43;41.51;101526.40;1829726;77;20341;-82
2021/04/13 09:31:19;;;;;;;;;;;;;;;18.52;40.80;101525.64;1824506;77;20234;-77
2021/04/13 09:33:49;;;;;;;;;;;;;;;18.56;40.36;101520.95;1828547;78;20111;-78
2021/04/13 09:36:38;;;;;;;;;;;;;;;18.61;40.94;101526.64;1855772;77;20213;-76
2021/04/13 09:39:27;;;;;;;;;;;;;;;18.68;40.80;101519.89;1851598;77;21250;-79
2021/04/13 09:42:32;;;;;;;;;;;;;;;18.83;40.45;101509.35;1842293;77;20212;-77
2021/04/13 09:45:21;;;;;;;;;;;;;;;18.86;40.47;101518.29;1852129;76;20275;-77
2021/04/13 09:47:56;;;;;;;;;;;;;;;19.01;39.96;101514.34;1846143;77;20328;-80
2021/04/13 09:50:42;;;;;;;;;;;;;;;19.29;39.41;101509.61;1854933;77;20245;-77
2021/04/13 09:53:33;;;;;;;;;;;;;;;20.00;38.50;101499.17;1845226;76;21187;-78
2021/04/13 09:56:38;;;;;;;;;;;;;;;20.95;35.33;101503.75;1841808;77;20130;-75
2021/04/13 09:59:26;;;;;;;;;;;;;;;21.96;34.93;101494.17;1841228;76;20162;-78
2021/04/13 10:02:18;;;;;;;;;;;;;;;22.84;33.12;101492.19;1850091;77;20598;-76
2021/04/13 10:04:59;;;;;;;;;;;;;;;23.86;32.50;101484.23;1858725;77;20308;-84
2021/04/13 10:07:47;;;;;;;;;;;;;;;24.36;29.92;101481.83;1853025;77;22098;-78
2021/04/13 10:10:26;;;;;;;;;;;;;;;24.35;30.06;101478.83;1823463;77;20202;-85
2021/04/13 10:13:04;;;;;;;;;;;;;;;24.03;30.53;101487.66;1859576;77;20324;-79
2021/04/13 10:15:46;;;;;;;;;;;;;;;23.61;30.17;101479.95;1841495;78;20768;-77
2021/04/13 10:18:34;;;;;;;;;;;;;;;23.14;32.36;101484.98;1827372;77;20308;-83
2021/04/13 10:21:24;;;;;;;;;;;;;;;23.47;32.41;101481.92;1847210;77;22008;-78
2021/04/13 10:24:26;;;;;;;;;;;;;;;23.75;29.16;101482.41;1848103;77;20244;-79
2021/04/13 10:27:11;;;;;;;;;;;;;;;24.32;29.26;101477.84;1845972;77;20650;-83
2021/04/13 10:30:14;;;;;;;;;;;;;;;25.55;27.87;101475.23;1847749;77;20499;-77
2021/04/13 10:33:04;;;;;;;;;;;;;;;26.04;26.91;101486.23;1860533;77;20236;-79
2021/04/13 10:35:55;;;;;;;;;;;;;;;25.88;25.79;101481.10;1841824;77;21218;-76
2021/04/13 10:38:47;;;;;;;;;;;;;;;25.41;27.78;101478.13;1873577;75;20108;-82
2021/04/13 10:41:44;;;;;;;;;;;;;;;25.19;27.85;101482.45;1869256;76;20189;-77
2021/04/13 10:44:50;;;;;;;;;;;;;;;24.84;27.19;101475.02;1875808;75;20251;-79
2021/04/13 10:47:42;;;;;;;;;;;;;;;24.29;28.45;101467.58;1894782;75;20227;-77
2021/04/13 10:50:27;;;;;;;;;;;;;;;24.45;29.01;101472.83;1857139;76;20241;-75
2021/04/13 10:53:16;;;;;;;;;;;;;;;24.55;27.69;101475.62;1860369;76;20217;-76
2021/04/13 10:56:20;;;;;;;;;;;;;;;24.20;28.37;101470.77;1859542;76;20272;-80
2021/04/13 10:59:07;;;;;;;;;;;;;;;24.47;28.17;101467.71;1854574;76;20192;-77
2021/04/13 11:01:45;;;;;;;;;;;;;;;25.02;27.83;101461.46;1855952;77;20570;-76
2021/04/13 11:04:17;;;;;;;;;;;;;;;25.20;27.45;101459.37;1851925;76;22129;-84
2021/04/13 11:06:58;;;;;;;;;;;;;;;25.37;26.70;101454.77;1848886;76;20134;-81
2021/04/13 11:09:49;;;;;;;;;;;;;;;25.44;26.56;101454.35;1784225;78;20215;-79
2021/04/13 11:12:43;;;;;;;;;;;;;;;25.35;27.09;101459.41;1824176;78;20315;-78
2021/04/13 11:15:28;;;;;;;;;;;;;;;25.45;25.31;101445.39;1829798;78;20554;-78
2021/04/13 11:18:02;;;;;;;;;;;;;;;25.50;25.91;101449.19;1833619;78;21196;-80
2021/04/13 11:20:59;;;;;;;;;;;;;;;25.78;26.72;101452.91;1816345;78;20230;-80
2021/04/13 11:24:03;;;;;;;;;;;;;;;26.14;25.68;101450.87;1856403;76;20118;-77
2021/04/13 11:26:52;;;;;;;;;;;;;;;26.33;25.93;101446.86;1863324;76;20512;-80
2021/04/13 11:29:57;;;;;;;;;;;;;;;26.38;24.79;101443.99;1825044;77;20520;-79
2021/04/13 11:32:54;;;;;;;;;;;;;;;26.50;23.87;101439.84;1862380;76;20103;-82
2021/04/13 11:35:29;;;;;;;;;;;;;;;26.93;22.46;101440.76;1849086;76;20258;-78
2021/04/13 11:38:11;;;;;;;;;;;;;;;27.50;20.86;101434.08;1780280;78;20219;-81
2021/04/13 11:40:49;;;;;;;;;;;;;;;27.84;20.85;101427.95;1804361;78;20206;-75
2021/04/13 11:43:24;;;;;;;;;;;;;;;27.67;21.32;101428.75;1853684;76;20327;-75
2021/04/13 11:46:05;;;;;;;;;;;;;;;27.65;21.76;101431.30;1858682;76;21989;-80
2021/04/13 11:48:52;;;;;;;;;;;;;;;27.57;21.19;101427.47;1829434;76;20487;-77
2021/04/13 11:51:30;;;;;;;;;;;;;;;27.21;21.22;101432.36;1864405;76;20367;-79
2021/04/13 11:53:58;;;;;;;;;;;;;;;26.66;21.77;101430.31;1861522;76;21128;-79
2021/04/13 11:56:34;;;;;;;;;;;;;;;26.32;22.02;101429.27;1819705;77;20242;-81
2021/04/13 11:59:22;;;;;;;;;;;;;;;26.13;22.30;101424.77;1857448;76;21224;-80
2021/04/13 12:01:58;;;;;;;;;;;;;;;26.27;21.96;101426.65;1864377;76;20210;-78
2021/04/13 12:04:47;;;;;;;;;;;;;;;26.69;21.90;101419.28;1845221;76;20134;-80
2021/04/13 12:07:35;;;;;;;;;;;;;;;26.93;22.01;101413.33;1862570;76;20273;-77
2021/04/13 12:10:06;;;;;;;;;;;;;;;27.09;21.76;101409.87;1859417;76;22039;-82
2021/04/13 12:12:36;;;;;;;;;;;;;;;27.56;21.55;101406.64;1869771;76;21274;-81
2021/04/13 12:15:08;;;;;;;;;;;;;;;28.01;20.70;101407.95;1858720;76;20790;-73
2021/04/13 12:17:43;;;;;;;;;;;;;;;28.10;19.94;101405.47;1854579;76;20130;-76
2021/04/13 12:20:31;;;;;;;;;;;;;;;27.51;20.97;101402.38;1862698;76;20641;-76
2021/04/13 12:23:08;;;;;;;;;;;;;;;27.46;21.06;101408.81;1860568;76;20209;-78
2021/04/13 12:25:45;;;;;;;;;;;;;;;27.27;19.00;101396.11;1863209;76;22308;-81
2021/04/13 12:28:33;;;;;;;;;;;;;;;26.53;20.63;101399.53;1856586;76;20229;-76
2021/04/13 12:31:23;;;;;;;;;;;;;;;26.26;21.56;101390.39;1862048;77;20233;-82
2021/04/13 12:34:03;;;;;;;;;;;;;;;25.68;21.84;101390.39;1862346;77;20480;-81
2021/04/13 12:36:43;;;;;;;;;;;;;;;24.49;23.37;101388.75;1856574;76;21139;-77
2021/04/13 12:39:14;;;;;;;;;;;;;;;23.91;24.74;101387.78;1860633;76;21137;-80
2021/04/13 12:41:58;;;;;;;;;;;;;;;23.73;24.77;101380.55;1836878;76;20226;-79
2021/04/13 12:44:28;;;;;;;;;;;;;;;23.58;24.62;101379.59;1858070;76;20226;-81
2021/04/13 12:46:59;;;;;;;;;;;;;;;23.43;24.90;101386.54;1862066;76;20530;-78
2021/04/13 12:49:31;;;;;;;;;;;;;;;23.58;25.60;101390.19;1854522;76;20226;-79
2021/04/13 12:52:15;;;;;;;;;;;;;;;23.66;25.28;101387.02;1845977;76;21155;-80
2021/04/13 12:54:44;;;;;;;;;;;;;;;23.56;24.96;101383.72;1864497;76;20568;-80
2021/04/13 12:57:20;;;;;;;;;;;;;;;23.16;25.52;101385.87;1853125;76;20217;-80
2021/04/13 12:59:52;;;;;;;;;;;;;;;22.87;25.70;101387.33;1857683;76;20198;-78
2021/04/13 13:02:36;;;;;;;;;;;;;;;22.66;25.99;101389.09;1854462;76;20134;-82
2021/04/13 13:05:23;;;;;;;;;;;;;;;22.79;25.46;101389.45;1863340;76;21183;-84
2021/04/13 13:07:58;;;;;;;;;;;;;;;22.97;26.18;101384.87;1850589;76;20142;-78
2021/04/13 13:10:31;;;;;;;;;;;;;;;23.42;25.48;101380.41;1863041;76;20154;-79
2021/04/13 13:13:08;;;;;;;;;;;;;;;23.95;24.10;101372.36;1854000;76;20236;-81
2021/04/13 13:15:38;;;;;;;;;;;;;;;24.34;22.97;101377.72;1868007;76;20248;-81
2021/04/13 13:18:18;;;;;;;;;;;;;;;24.39;23.57;101372.21;1851554;76;21251;-82
2021/04/13 13:20:46;;;;;;;;;;;;;;;24.54;24.06;101369.63;1859829;76;20602;-81
2021/04/13 13:23:17;;;;;;;;;;;;;;;24.88;23.27;101369.30;1844811;77;20237;-79
2021/04/13 13:25:46;;;;;;;;;;;;;;;25.22;23.57;101359.89;1857057;76;20213;-80
2021/04/13 13:28:21;;;;;;;;;;;;;;;25.54;23.00;101353.97;1849522;76;20142;-78
2021/04/13 13:30:50;;;;;;;;;;;;;;;25.95;22.94;101353.02;1870482;76;21182;-79
2021/04/13 13:33:20;;;;;;;;;;;;;;;26.33;21.82;101358.55;1856940;76;20248;-77
2021/04/13 13:35:49;;;;;;;;;;;;;;;26.12;22.56;101355.31;1863881;77;20130;-79
2021/04/13 13:38:21;;;;;;;;;;;;;;;25.82;23.38;101351.00;1863027;77;20626;-79
2021/04/13 13:40:50;;;;;;;;;;;;;;;25.58;23.60;101345.96;1859017;76;20208;-79
2021/04/13 13:43:23;;;;;;;;;;;;;;;25.36;24.12;101342.33;1855347;76;21129;-82